Aérodrome :
LOGIN :

S'inscrire | Disclaimer

   EN    FR    IT 

 










Légende :    VFR   VFR Marginal   IFR   IFR Intensif   IFR Très Intensif
Visi : 
Plafond : 
>= 8 km
>= 3000ft
5 à 8 km
1000 à 3000 ft
1500m à 5 km
500 à 1000 ft
800 à 1500m
200 à 500 ft
< 800m
< 200 ft
Symboles :   Orages  Brouillard  Fortes neiges  Fortes précipitations  Vent > 20 kt
SIGMETs :   Divers  Orages  Givrage  Turbulence  Onde Orograph.  Cendres Volcan.






- Altitude de l'aérodrome : 461 ft
- Code IATA : WIE


ETOU - Wiesbaden Army

DERNIER METAR :
  • 281125Z AUTO 24007KT 9999 SCT034 BKN050 OVC075 12/11 A2988 RMK AO2 RAE25 SLPNO $

METARs EXPIRÉS :
  • 281056Z AUTO 24012KT 9999 -RA SCT017 SCT044 OVC055 12/10 A2987 RMK AO2 RAB06E32DZB32E37RAB37 SLPNO P0003 T01150099 $
  • 281051Z AUTO 24014KT 9999 -RA SCT017 OVC055 12/11 A2987 RMK AO2 RAB06E32DZB32E37RAB37 SLPNO $
  • 281036Z AUTO 22015G17KT 9999 -DZ SCT011 OVC018 12/12 A2986 RMK AO2 RAB06E32DZB32 SLPNO $
  • 281006Z AUTO 19005KT 9999 -RA OVC013 12/12 A2987 RMK AO2 RAB06 SLPNO $
  • 280956Z AUTO 18006KT 9999 OVC013 12/12 A2987 RMK AO2 SLPNO T01220122 $

TAF AMD TAF ETOU
Valide du 28 à 06h jusqu'au 29 à 10h UTC


280630Z 2806/2910 20010KT 8000 -SHRA BKN010 OVC015 610606 QNH2980INS
BECMG 2807/2808 20009KT 9999 NSW SCT010 OVC015 620606 QNH2981INS
BECMG 2811/2812 21015G20KT 9999 FEW030 SCT100 QNH2985INS
TEMPO 2812/2814 8000 -RA BKN020 620606
BECMG 2819/2820 20010KT 9999 BKN030 QNH2988INS
BECMG 2900/2901 24010G15KT 8000 -SHRA SCT010 OVC015 QNH2990INS TX13/2813Z TN08/2904Z



MET'MAP, la Météo Aéronautique d'un coup d'oeil ! - Copyright ORBIFLY Décembre 2007 - Disclaimer

ORBIFLY MET'MAP TEAM :

Programmation & Développement : Alexandra Zaïnal
Sur une idée originale de : Baudouin d'Aumeries
Assistance à la programmation : Marc-Olivier Méhu
Soutien technique & logistique : Manuel Goepfert

Contact : metmap@orbifly.com




SOURCES & CREDITS :

   NOAA